Terminal Aerodrome Forecast
Issued by NWS

Home | Current Version | Previous Version | Text Only | Print | Product List | Glossary On
Versions: 1 2 3 4 5 6 7 8 9 10 11 12 13 14 15 16 17 18 19 20
000
FTUS43 KILX 271100
TAFBMI
TAF
KBMI 271120Z 2712/2812 22013KT P6SM OVC004
      TEMPO 2712/2714 5SM BR
     FM271800 27015KT P6SM OVC010
     FM280100 30008KT P6SM SCT015 OVC120=

USA.gov is the U.S. government's official web portal to all federal, state and local government web resources and services.